createdAt,value
2023-03-28T00:01:39.280Z,0.50
2023-03-28T00:15:39.283Z,0.50
2023-03-28T00:29:39.263Z,0.40
2023-03-28T00:43:39.445Z,0.40
2023-03-28T00:57:39.266Z,0.40
2023-03-28T01:11:39.267Z,0.30
2023-03-28T01:25:39.279Z,0.30
2023-03-28T01:39:39.299Z,0.40
2023-03-28T01:53:39.304Z,0.30
2023-03-28T02:07:39.317Z,0.30
2023-03-28T02:21:39.354Z,0.30
2023-03-28T02:35:39.382Z,0.30
2023-03-28T02:49:49.428Z,0.30
2023-03-28T03:03:39.405Z,0.20
2023-03-28T03:17:39.405Z,0.20
2023-03-28T03:31:39.426Z,0.20
2023-03-28T03:45:39.390Z,0.20
2023-03-28T03:59:39.372Z,0.20
2023-03-28T04:13:39.560Z,0.20
2023-03-28T04:27:39.448Z,0.20
2023-03-28T04:41:39.406Z,0.20
2023-03-28T04:56:39.451Z,0.20
2023-03-28T05:11:39.421Z,0.20
2023-03-28T05:27:39.416Z,0.20
2023-03-28T05:42:39.464Z,0.70
2023-03-28T05:57:39.475Z,1.10
2023-03-28T06:12:39.458Z,1.20
2023-03-28T06:27:39.474Z,1.30
2023-03-28T06:42:39.509Z,1.20
2023-03-28T06:57:39.502Z,1.10
2023-03-28T07:12:39.553Z,1.20
2023-03-28T07:27:39.521Z,0.90
2023-03-28T07:42:39.542Z,1.00
2023-03-28T07:57:39.540Z,0.80
2023-03-28T08:12:39.587Z,0.80
2023-03-28T08:27:39.568Z,0.60
2023-03-28T08:42:39.608Z,0.60
2023-03-28T08:57:39.603Z,0.50
2023-03-28T09:12:39.584Z,1.00
2023-03-28T09:27:39.635Z,3.10
2023-03-28T09:42:39.612Z,3.00
2023-03-28T09:57:39.621Z,3.10
2023-03-28T10:12:39.664Z,2.90
2023-03-28T10:27:39.648Z,2.90
2023-03-28T10:42:39.640Z,2.40
2023-03-28T10:57:39.660Z,2.50
2023-03-28T11:12:47.669Z,2.20
2023-03-28T11:27:39.693Z,2.00
2023-03-28T11:42:39.735Z,1.90
2023-03-28T11:57:39.723Z,1.30
2023-03-28T12:12:39.719Z,0.90
2023-03-28T12:27:39.746Z,1.10
2023-03-28T12:42:39.767Z,0.90
2023-03-28T12:57:42.293Z,0.95
2023-03-28T13:12:39.791Z,0.80
2023-03-28T13:27:39.837Z,0.90
2023-03-28T13:42:39.842Z,0.80
2023-03-28T13:57:39.834Z,0.70
2023-03-28T14:12:39.828Z,0.70
2023-03-28T14:27:39.824Z,0.80
2023-03-28T14:42:39.854Z,0.60
2023-03-28T14:57:39.890Z,0.60
2023-03-28T15:12:39.892Z,0.60
2023-03-28T15:27:39.905Z,0.60
2023-03-28T15:42:39.916Z,0.80
2023-03-28T15:57:39.912Z,0.70
2023-03-28T16:12:39.941Z,0.65
2023-03-28T16:27:40.244Z,0.60
2023-03-28T16:42:39.952Z,0.50
2023-03-28T16:57:39.930Z,0.80
2023-03-28T17:12:39.968Z,0.70
2023-03-28T17:27:40.008Z,0.70
2023-03-28T17:42:40.024Z,0.70
2023-03-28T17:57:40.044Z,0.80
2023-03-28T18:12:40.061Z,1.60
2023-03-28T18:26:40.160Z,2.05
2023-03-28T18:40:40.113Z,3.25
2023-03-28T18:54:40.053Z,3.90
2023-03-28T19:08:40.078Z,4.00
2023-03-28T19:22:40.102Z,4.00
2023-03-28T19:36:40.088Z,4.30
2023-03-28T19:50:40.095Z,4.60
2023-03-28T20:04:40.123Z,4.30
2023-03-28T20:18:40.081Z,4.40
2023-03-28T20:32:40.161Z,4.20
2023-03-28T20:46:40.195Z,3.90
2023-03-28T21:00:40.203Z,3.90
2023-03-28T21:14:40.140Z,3.50
2023-03-28T21:28:40.114Z,3.50
2023-03-28T21:42:40.148Z,3.10
2023-03-28T21:56:40.163Z,3.10
2023-03-28T22:10:40.171Z,3.10
2023-03-28T22:24:40.162Z,2.60
2023-03-28T22:38:40.218Z,2.30
2023-03-28T22:52:40.192Z,2.30
2023-03-28T23:06:40.192Z,2.20
2023-03-28T23:20:40.394Z,2.00
2023-03-28T23:34:40.208Z,1.80
2023-03-28T23:48:40.221Z,2.00
